Time;durP1;ratioP1;P1;durP2;ratioP2;P2;SDS_P1;SDS_P2;PMS_P1;PMS_P2;Temp;Humidity;BMP_temperature;BMP_pressure;BME280_temperature;BME280_humidity;BME280_pressure;Samples;Min_cycle;Max_cycle;Signal;HPM_P1;HPM_P2
2023/01/02 00:00:48;;;;;;;25.80;16.55;;;10.80;99.90;;;;;;7372568;19;20018;-57
2023/01/02 00:03:14;;;;;;;29.73;19.23;;;10.80;99.90;;;;;;7373417;19;20061;-47
2023/01/02 00:05:41;;;;;;;27.13;18.73;;;10.80;99.90;;;;;;7373446;19;20019;-57
2023/01/02 00:08:07;;;;;;;29.13;19.45;;;10.90;99.90;;;;;;7371775;19;20025;-57
2023/01/02 00:10:34;;;;;;;31.23;20.00;;;10.80;99.90;;;;;;7374734;19;20041;-50
2023/01/02 00:13:00;;;;;;;32.75;19.35;;;10.80;99.90;;;;;;7370976;19;20396;-48
2023/01/02 00:15:26;;;;;;;30.35;20.60;;;10.80;99.90;;;;;;7376811;19;20015;-57
2023/01/02 00:17:53;;;;;;;30.33;21.25;;;10.90;99.90;;;;;;7370029;19;20070;-57
2023/01/02 00:20:19;;;;;;;32.05;21.02;;;10.90;99.90;;;;;;7373060;19;20015;-58
2023/01/02 00:22:45;;;;;;;33.50;22.67;;;10.90;99.90;;;;;;7373267;19;20047;-46
2023/01/02 00:25:12;;;;;;;40.03;26.05;;;10.90;99.90;;;;;;7373221;19;20022;-49
2023/01/02 00:27:38;;;;;;;41.80;26.52;;;10.90;99.90;;;;;;7372162;19;20025;-46
2023/01/02 00:30:04;;;;;;;44.92;28.88;;;10.90;99.90;;;;;;7370139;19;20014;-50
2023/01/02 00:32:31;;;;;;;43.55;26.55;;;10.90;99.90;;;;;;7369066;19;20391;-57
2023/01/02 00:34:58;;;;;;;47.97;28.42;;;10.90;99.90;;;;;;7372992;19;20014;-48
2023/01/02 00:37:24;;;;;;;51.30;31.63;;;10.90;99.90;;;;;;7373433;19;20029;-47
2023/01/02 00:39:50;;;;;;;51.28;34.58;;;10.90;99.90;;;;;;7370884;19;20485;-58
2023/01/02 00:42:17;;;;;;;58.70;36.08;;;10.90;99.90;;;;;;7369447;19;20026;-47
2023/01/02 00:44:43;;;;;;;59.70;35.20;;;10.90;99.90;;;;;;7372365;19;20093;-47
2023/01/02 00:47:09;;;;;;;60.05;36.88;;;10.90;99.90;;;;;;7373752;19;20025;-48
2023/01/02 00:49:35;;;;;;;50.60;33.83;;;11.00;99.90;;;;;;7372524;19;20125;-48
2023/01/02 00:52:02;;;;;;;60.88;37.33;;;11.00;99.90;;;;;;7368554;19;20018;-57
2023/01/02 00:54:28;;;;;;;60.08;34.47;;;11.00;99.90;;;;;;7370362;19;20697;-46
2023/01/02 00:56:54;;;;;;;54.30;34.22;;;11.00;99.90;;;;;;7371764;19;20010;-50
2023/01/02 00:59:21;;;;;;;53.83;32.92;;;11.00;99.90;;;;;;7372630;19;20356;-51
2023/01/02 01:01:47;;;;;;;64.20;34.40;;;11.00;99.90;;;;;;7368696;19;20387;-49
2023/01/02 01:04:14;;;;;;;58.50;34.20;;;11.00;99.90;;;;;;7369594;19;20102;-48
2023/01/02 01:06:40;;;;;;;56.08;33.88;;;11.00;99.90;;;;;;7372079;19;20498;-46
2023/01/02 01:09:06;;;;;;;56.63;34.53;;;11.00;99.90;;;;;;7370671;19;20020;-46
2023/01/02 01:11:35;;;;;;;55.90;32.45;;;11.00;99.90;;;;;;7372422;19;20026;-46
2023/01/02 01:14:01;;;;;;;52.33;32.50;;;11.00;99.90;;;;;;7369441;19;20015;-46
2023/01/02 01:16:27;;;;;;;48.15;33.35;;;11.00;99.90;;;;;;7375722;19;20029;-45
2023/01/02 01:18:55;;;;;;;52.75;32.65;;;11.10;99.90;;;;;;7374188;19;20026;-49
2023/01/02 01:21:22;;;;;;;51.88;30.13;;;11.10;99.90;;;;;;7372104;19;21556;-50
2023/01/02 01:23:51;;;;;;;50.70;29.02;;;11.10;99.90;;;;;;7366533;19;20371;-47
2023/01/02 01:26:17;;;;;;;47.33;29.40;;;11.10;99.90;;;;;;7369454;19;20006;-46
2023/01/02 01:28:43;;;;;;;41.97;28.00;;;11.10;99.90;;;;;;7372383;19;20452;-45
2023/01/02 01:31:12;;;;;;;43.55;27.52;;;11.10;99.90;;;;;;7367436;19;20015;-47
2023/01/02 01:33:41;;;;;;;42.72;25.45;;;11.20;99.90;;;;;;7367147;19;20018;-46
2023/01/02 01:36:14;;;;;;;45.45;25.98;;;11.10;99.90;;;;;;7371537;19;20033;-45
2023/01/02 01:38:41;;;;;;;41.25;24.75;;;11.10;99.90;;;;;;7369032;19;20024;-45
2023/01/02 01:41:10;;;;;;;39.20;25.02;;;11.20;99.90;;;;;;7370798;19;20110;-45
2023/01/02 01:43:42;;;;;;;39.35;24.83;;;11.20;99.90;;;;;;7367265;19;20040;-50
2023/01/02 01:46:18;;;;;;;37.83;23.73;;;11.20;99.90;;;;;;7369631;19;20720;-51
2023/01/02 01:48:47;;;;;;;35.78;22.42;;;11.20;99.90;;;;;;7371420;19;20561;-49
2023/01/02 01:51:14;;;;;;;34.63;21.80;;;11.20;99.90;;;;;;7372733;19;20097;-47
2023/01/02 01:53:46;;;;;;;40.38;22.52;;;11.20;99.90;;;;;;7366729;19;20015;-50
2023/01/02 01:56:13;;;;;;;38.85;22.10;;;11.30;99.90;;;;;;7369893;19;20014;-49
2023/01/02 01:58:43;;;;;;;36.05;22.25;;;11.30;99.90;;;;;;7370315;19;20066;-50
2023/01/02 02:01:11;;;;;;;31.88;20.58;;;11.30;99.90;;;;;;7369349;19;20014;-47
2023/01/02 02:03:41;;;;;;;28.33;20.45;;;11.30;99.90;;;;;;7367626;19;20889;-48
2023/01/02 02:06:09;;;;;;;31.67;21.38;;;11.30;99.90;;;;;;7371154;19;20601;-47
2023/01/02 02:09:02;;;;;;;33.92;20.58;;;11.30;99.90;;;;;;7370873;19;20022;-46
2023/01/02 02:11:29;;;;;;;36.15;20.17;;;11.30;99.90;;;;;;7370184;19;20029;-46
2023/01/02 02:13:58;;;;;;;30.15;20.55;;;11.30;99.90;;;;;;7366999;19;20648;-47
2023/01/02 02:16:40;;;;;;;28.50;18.75;;;11.30;99.90;;;;;;7369370;19;20035;-45
2023/01/02 02:19:09;;;;;;;28.40;18.13;;;11.30;99.90;;;;;;7366968;19;20023;-47
2023/01/02 02:21:44;;;;;;;28.17;18.30;;;11.20;99.90;;;;;;7372375;19;20019;-46
2023/01/02 02:24:29;;;;;;;29.20;18.17;;;11.20;99.90;;;;;;7367058;19;20019;-46
2023/01/02 02:27:17;;;;;;;25.63;18.30;;;11.30;99.90;;;;;;7369061;19;20015;-49
2023/01/02 02:29:50;;;;;;;30.30;18.17;;;11.30;99.90;;;;;;7368915;19;20034;-49
2023/01/02 02:32:32;;;;;;;31.33;18.75;;;11.30;99.90;;;;;;7368151;19;20469;-47
2023/01/02 02:35:22;;;;;;;31.77;19.75;;;11.30;99.90;;;;;;7369303;19;20414;-58
2023/01/02 02:37:55;;;;;;;27.85;18.60;;;11.30;99.90;;;;;;7368766;19;20022;-50
2023/01/02 02:40:31;;;;;;;30.15;18.67;;;11.30;99.90;;;;;;7370167;19;20019;-57
2023/01/02 02:43:07;;;;;;;28.80;18.70;;;11.30;99.90;;;;;;7368072;19;20022;-46
2023/01/02 02:45:52;;;;;;;29.45;17.15;;;11.30;99.90;;;;;;7363755;19;20015;-50
2023/01/02 02:48:30;;;;;;;24.92;17.17;;;11.30;99.90;;;;;;7368869;19;20014;-49
2023/01/02 02:51:08;;;;;;;32.70;17.33;;;11.30;99.90;;;;;;7370324;19;20082;-50
2023/01/02 02:53:42;;;;;;;29.17;16.58;;;11.30;99.90;;;;;;7366128;19;20036;-57
2023/01/02 02:56:10;;;;;;;24.40;15.70;;;11.30;99.90;;;;;;7373076;19;20045;-50
2023/01/02 02:58:39;;;;;;;24.65;15.32;;;11.40;99.90;;;;;;7374396;19;20447;-50
2023/01/02 03:01:12;;;;;;;25.55;16.27;;;11.40;99.90;;;;;;7375152;19;20580;-49
2023/01/02 03:03:38;;;;;;;23.45;16.00;;;11.40;99.90;;;;;;7377316;19;20774;-50
2023/01/02 03:06:16;;;;;;;22.10;15.00;;;11.40;99.90;;;;;;7373848;19;20552;-50
2023/01/02 03:08:55;;;;;;;24.85;15.60;;;11.50;99.90;;;;;;7377482;19;20484;-50
2023/01/02 03:11:30;;;;;;;26.33;15.77;;;11.40;99.90;;;;;;7377158;19;20025;-46
2023/01/02 03:13:59;;;;;;;28.58;16.13;;;11.40;99.90;;;;;;7372557;19;20014;-49
2023/01/02 03:16:34;;;;;;;22.80;15.70;;;11.40;99.90;;;;;;7376430;19;20010;-50
2023/01/02 03:19:02;;;;;;;24.50;15.27;;;11.40;99.90;;;;;;7374114;19;20390;-49
2023/01/02 03:21:39;;;;;;;24.30;16.40;;;11.40;99.90;;;;;;7378545;19;20675;-49
2023/01/02 03:24:06;;;;;;;;;;;11.40;99.90;;;;;;7371483;19;20086;-45
2023/01/02 03:26:35;;;;;;;24.52;15.18;;;11.40;99.90;;;;;;7368497;19;19918;-46
2023/01/02 03:29:11;;;;;;;;;;;11.40;99.90;;;;;;7370808;19;20036;-57
2023/01/02 03:31:40;;;;;;;28.25;17.52;;;11.40;99.90;;;;;;7374260;19;19918;-57
2023/01/02 03:34:14;;;;;;;34.58;17.95;;;11.40;99.90;;;;;;7373196;19;20018;-58
2023/01/02 03:36:43;;;;;;;31.75;17.92;;;11.40;99.90;;;;;;7373378;19;20459;-50
2023/01/02 03:39:19;;;;;;;32.00;18.60;;;11.40;99.90;;;;;;7371098;19;21367;-47
2023/01/02 03:42:01;;;;;;;25.55;17.73;;;11.40;99.90;;;;;;7370275;19;20026;-47
2023/01/02 03:44:36;;;;;;;33.30;18.60;;;11.40;99.90;;;;;;7375512;19;20019;-47
2023/01/02 03:47:27;;;;;;;31.23;16.77;;;11.40;99.90;;;;;;7362515;19;20022;-46
2023/01/02 03:49:58;;;;;;;30.00;17.15;;;11.40;99.90;;;;;;7373341;19;20539;-51
2023/01/02 03:52:24;;;;;;;28.27;18.17;;;11.40;99.90;;;;;;7371283;19;20019;-47
2023/01/02 03:54:51;;;;;;;27.75;16.42;;;11.40;99.90;;;;;;7368728;19;20384;-48
2023/01/02 03:57:46;;;;;;;26.65;16.38;;;11.40;99.90;;;;;;7366701;19;20022;-46
2023/01/02 04:00:16;;;;;;;24.17;17.08;;;11.40;99.90;;;;;;7374164;19;20432;-49
2023/01/02 04:03:21;;;;;;;31.00;17.23;;;11.50;99.90;;;;;;7374375;19;20022;-48
2023/01/02 04:05:53;;;;;;;28.25;16.67;;;11.40;99.90;;;;;;7373114;19;20019;-46
2023/01/02 04:08:40;;;;;;;29.50;16.67;;;11.40;99.90;;;;;;7375173;19;20103;-48
2023/01/02 04:11:08;;;;;;;29.92;16.98;;;11.50;99.90;;;;;;7374164;19;20017;-51
2023/01/02 04:14:03;;;;;;;27.42;16.52;;;11.50;99.90;;;;;;7373262;19;20026;-49
2023/01/02 04:16:34;;;;;;;25.55;15.70;;;11.50;99.90;;;;;;7375838;19;20477;-47
2023/01/02 04:19:19;;;;;;;27.45;16.05;;;11.50;99.90;;;;;;7372828;19;20006;-47
2023/01/02 04:21:48;;;;;;;24.42;16.05;;;11.50;99.90;;;;;;7373961;19;20022;-45
2023/01/02 04:24:19;;;;;;;30.13;16.45;;;11.60;99.90;;;;;;7372232;19;20602;-47
2023/01/02 04:27:02;;;;;;;25.60;16.15;;;11.60;99.90;;;;;;7375129;19;20022;-47
2023/01/02 04:29:29;;;;;;;24.08;14.50;;;11.60;99.90;;;;;;7375102;19;20022;-47
2023/01/02 04:31:57;;;;;;;25.20;15.07;;;11.60;99.90;;;;;;7372640;19;20248;-48
2023/01/02 04:34:27;;;;;;;26.15;15.73;;;11.60;99.90;;;;;;7371487;19;20381;-47
2023/01/02 04:36:53;;;;;;;27.65;15.38;;;11.70;99.90;;;;;;7370594;19;20090;-46
2023/01/02 04:39:23;;;;;;;18.23;14.15;;;11.70;99.90;;;;;;7373458;19;20018;-47
2023/01/02 04:41:49;;;;;;;21.45;15.52;;;11.70;99.90;;;;;;7371627;19;20015;-48
2023/01/02 04:44:16;;;;;;;25.65;15.30;;;11.70;99.90;;;;;;7375377;19;20102;-49
2023/01/02 04:46:42;;;;;;;24.38;15.57;;;11.70;99.90;;;;;;7375367;19;20021;-49
2023/01/02 04:49:09;;;;;;;20.98;13.95;;;11.70;99.90;;;;;;7369899;19;20039;-49
2023/01/02 04:51:35;;;;;;;20.98;14.57;;;11.70;99.90;;;;;;7371498;19;20929;-49
2023/01/02 04:54:01;;;;;;;29.48;14.98;;;11.70;99.90;;;;;;7369250;19;20014;-50
2023/01/02 04:56:28;;;;;;;21.48;14.65;;;11.70;99.90;;;;;;7372564;19;20018;-50
2023/01/02 04:58:54;;;;;;;21.88;13.73;;;11.70;99.90;;;;;;7369538;19;20018;-49
2023/01/02 05:01:21;;;;;;;21.70;13.88;;;11.80;99.90;;;;;;7369120;19;20010;-49
2023/01/02 05:03:50;;;;;;;22.55;13.68;;;11.80;99.90;;;;;;7369922;19;20019;-49
2023/01/02 05:06:16;;;;;;;20.80;14.38;;;11.80;99.90;;;;;;7369973;19;20023;-57
2023/01/02 05:08:42;;;;;;;17.80;13.18;;;11.90;99.90;;;;;;7368834;19;20022;-46
2023/01/02 05:11:15;;;;;;;22.83;12.85;;;11.90;99.90;;;;;;7366403;19;20022;-57
2023/01/02 05:13:41;;;;;;;22.38;13.65;;;11.90;99.90;;;;;;7372490;19;20022;-57
2023/01/02 05:16:08;;;;;;;21.15;13.43;;;11.90;99.90;;;;;;7368935;19;20018;-57
2023/01/02 05:18:35;;;;;;;21.08;12.45;;;11.90;99.90;;;;;;7373883;19;20745;-50
2023/01/02 05:23:55;;;;;;;19.67;13.88;;;11.90;99.90;;;;;;7369072;19;20017;-48
2023/01/02 05:26:22;;;;;;;22.50;13.18;;;11.90;99.90;;;;;;7369554;19;20019;-46
2023/01/02 05:29:08;;;;;;;19.90;13.27;;;12.00;99.90;;;;;;7361305;19;20051;-49
2023/01/02 05:31:54;;;;;;;20.70;13.60;;;12.00;99.90;;;;;;7363288;19;20019;-45
2023/01/02 05:34:40;;;;;;;22.25;13.10;;;12.00;99.90;;;;;;7363960;19;20023;-47
2023/01/02 05:37:29;;;;;;;17.73;11.70;;;12.10;99.90;;;;;;7360732;19;20035;-46
2023/01/02 05:40:16;;;;;;;21.15;13.57;;;12.00;99.90;;;;;;7359810;19;20481;-46
2023/01/02 05:43:02;;;;;;;24.75;14.50;;;12.00;99.90;;;;;;7360903;19;20032;-48
2023/01/02 05:45:40;;;;;;;23.23;13.65;;;12.10;99.90;;;;;;7362533;19;20616;-46
2023/01/02 05:48:06;;;;;;;22.48;13.25;;;12.00;99.90;;;;;;7364467;19;20052;-48
2023/01/02 05:50:33;;;;;;;21.45;12.65;;;12.00;99.90;;;;;;7356373;19;20025;-47
2023/01/02 05:53:05;;;;;;;22.40;13.55;;;12.00;99.90;;;;;;7364099;19;20033;-45
2023/01/02 05:55:31;;;;;;;20.58;13.57;;;12.00;99.90;;;;;;7362259;19;20043;-49
2023/01/02 05:57:58;;;;;;;18.83;14.00;;;12.00;99.90;;;;;;7362641;19;20028;-50
2023/01/02 06:00:26;;;;;;;23.20;14.18;;;12.00;99.90;;;;;;7358552;19;20338;-58
2023/01/02 06:02:52;;;;;;;21.42;12.25;;;12.00;99.90;;;;;;7362652;19;20026;-47
2023/01/02 06:05:19;;;;;;;21.13;12.52;;;12.10;99.90;;;;;;7359008;19;20018;-48
2023/01/02 06:07:45;;;;;;;20.95;12.85;;;12.00;99.90;;;;;;7364844;19;20022;-57
2023/01/02 06:10:11;;;;;;;21.05;12.25;;;12.10;99.90;;;;;;7354998;19;20516;-57
2023/01/02 06:12:38;;;;;;;17.55;11.13;;;12.00;99.90;;;;;;7357790;19;20468;-57
2023/01/02 06:15:04;;;;;;;19.67;11.20;;;12.10;99.90;;;;;;7358470;19;20419;-57
2023/01/02 06:17:32;;;;;;;23.05;11.65;;;12.10;99.90;;;;;;7359135;19;20014;-44
2023/01/02 06:19:58;;;;;;;17.77;11.52;;;12.10;99.90;;;;;;7358056;19;20018;-49
2023/01/02 06:22:24;;;;;;;17.38;12.57;;;12.10;99.90;;;;;;7355951;19;20638;-57
2023/01/02 06:24:51;;;;;;;24.05;12.50;;;12.10;99.90;;;;;;7357322;19;20556;-57
2023/01/02 06:27:18;;;;;;;16.90;11.25;;;12.10;99.90;;;;;;7356676;19;20365;-51
2023/01/02 06:29:50;;;;;;;19.35;12.63;;;12.10;99.90;;;;;;7365599;19;20029;-57
2023/01/02 06:32:16;;;;;;;26.35;13.63;;;12.10;99.90;;;;;;7362987;19;20023;-45
2023/01/02 06:34:44;;;;;;;21.40;13.13;;;12.10;99.90;;;;;;7363821;19;20018;-57
2023/01/02 06:37:10;;;;;;;20.33;12.52;;;12.10;99.90;;;;;;7365862;19;20023;-48
2023/01/02 06:39:37;;;;;;;21.27;13.85;;;12.10;99.90;;;;;;7366292;19;20482;-57
2023/01/02 06:42:04;;;;;;;21.48;12.80;;;12.10;99.90;;;;;;7359893;19;20508;-58
2023/01/02 06:44:30;;;;;;;14.88;12.10;;;12.10;99.90;;;;;;7366148;19;20087;-56
2023/01/02 06:46:56;;;;;;;18.08;11.52;;;12.20;99.90;;;;;;7367331;19;20082;-57
2023/01/02 06:49:22;;;;;;;17.33;11.32;;;12.10;99.90;;;;;;7372649;19;20681;-57
2023/01/02 06:51:48;;;;;;;19.13;11.40;;;12.20;99.90;;;;;;7368102;19;20011;-57
2023/01/02 06:54:17;;;;;;;20.05;11.77;;;12.20;99.90;;;;;;7367966;19;20078;-57
2023/01/02 06:56:43;;;;;;;15.43;11.43;;;12.20;99.90;;;;;;7369612;19;20021;-57
2023/01/02 06:59:09;;;;;;;18.00;11.30;;;12.20;99.90;;;;;;7371909;19;20478;-57
2023/01/02 07:01:38;;;;;;;14.82;10.77;;;12.20;99.90;;;;;;7369432;19;20022;-57
2023/01/02 07:04:15;;;;;;;19.30;11.48;;;12.30;99.90;;;;;;7367883;19;20006;-57
2023/01/02 07:06:41;;;;;;;16.17;10.23;;;12.20;99.90;;;;;;7372376;19;20036;-57
2023/01/02 07:09:07;;;;;;;16.60;10.75;;;12.20;99.90;;;;;;7364416;19;20037;-57
2023/01/02 07:11:34;;;;;;;18.67;11.07;;;12.30;99.90;;;;;;7366604;19;20015;-57
2023/01/02 07:14:01;;;;;;;14.98;10.43;;;12.20;99.90;;;;;;7365061;19;20023;-57
2023/01/02 07:16:27;;;;;;;11.60;9.35;;;12.30;99.90;;;;;;7369265;19;20113;-57
2023/01/02 07:18:53;;;;;;;10.98;8.70;;;12.20;99.90;;;;;;7366424;19;20019;-57
2023/01/02 07:21:21;;;;;;;6.85;5.68;;;12.10;99.90;;;;;;7367781;19;20014;-57
2023/01/02 07:23:47;;;;;;;6.65;4.40;;;11.90;99.90;;;;;;7364619;19;20021;-57
2023/01/02 07:26:14;;;;;;;4.38;3.38;;;11.80;99.90;;;;;;7368440;19;20609;-57
2023/01/02 07:28:42;;;;;;;4.63;2.75;;;11.60;99.90;;;;;;7368556;19;20011;-58
2023/01/02 07:31:14;;;;;;;4.18;3.30;;;11.50;99.90;;;;;;7366822;19;20421;-57
2023/01/02 07:33:41;;;;;;;3.53;2.88;;;11.40;99.90;;;;;;7362974;19;20473;-57
2023/01/02 07:36:26;;;;;;;4.55;2.83;;;11.30;99.90;;;;;;7365179;19;20026;-54
2023/01/02 07:38:54;;;;;;;3.75;3.17;;;11.20;99.90;;;;;;7365920;19;20021;-57
2023/01/02 07:41:23;;;;;;;4.40;3.00;;;11.10;99.90;;;;;;7364152;19;20022;-57
2023/01/02 07:43:53;;;;;;;3.97;2.97;;;11.00;99.90;;;;;;7363518;19;20010;-57
2023/01/02 07:46:23;;;;;;;5.78;4.32;;;10.90;99.90;;;;;;7366927;19;20021;-57
2023/01/02 07:48:49;;;;;;;6.53;5.35;;;10.80;99.90;;;;;;7370606;19;20037;-57
2023/01/02 07:51:16;;;;;;;7.00;5.95;;;10.80;99.90;;;;;;7364441;19;20018;-57
2023/01/02 07:53:42;;;;;;;6.63;5.72;;;10.70;99.90;;;;;;7364498;19;20858;-57
2023/01/02 07:56:09;;;;;;;9.60;8.63;;;10.70;99.90;;;;;;7365923;19;20339;-57
2023/01/02 07:58:35;;;;;;;10.52;9.18;;;10.60;99.90;;;;;;7366388;19;20473;-57
2023/01/02 08:01:07;;;;;;;10.55;9.40;;;10.60;99.90;;;;;;7364386;19;21274;-57
2023/01/02 08:03:34;;;;;;;13.52;10.77;;;10.50;99.90;;;;;;7367642;19;20089;-57
2023/01/02 08:06:14;;;;;;;13.18;10.18;;;10.40;99.90;;;;;;7362761;19;20018;-57
2023/01/02 08:08:41;;;;;;;12.75;9.55;;;10.40;99.90;;;;;;7366906;19;20015;-57
2023/01/02 08:11:13;;;;;;;11.32;8.70;;;10.30;99.90;;;;;;7365441;19;20048;-57
2023/01/02 08:13:43;;;;;;;14.70;9.82;;;10.20;99.90;;;;;;7367389;19;20022;-56
2023/01/02 08:16:19;;;;;;;13.15;8.45;;;10.20;99.90;;;;;;7362730;19;20492;-56
2023/01/02 08:18:51;;;;;;;11.52;8.40;;;10.10;99.90;;;;;;7366827;19;20047;-57
2023/01/02 08:21:17;;;;;;;10.45;7.57;;;10.10;99.90;;;;;;7365197;19;20505;-57
2023/01/02 08:23:43;;;;;;;6.85;4.22;;;10.10;99.90;;;;;;7369785;19;20583;-57
2023/01/02 08:26:10;;;;;;;7.55;4.45;;;10.00;99.90;;;;;;7361988;19;20039;-57
2023/01/02 08:28:38;;;;;;;7.00;4.60;;;9.90;99.90;;;;;;7366081;19;20018;-57
2023/01/02 08:31:10;;;;;;;5.70;3.55;;;9.90;99.90;;;;;;7363667;19;20018;-57
2023/01/02 08:33:36;;;;;;;7.00;3.72;;;9.80;99.90;;;;;;7361076;19;20086;-57
2023/01/02 08:36:03;;;;;;;7.38;4.30;;;9.70;99.90;;;;;;7360273;19;20515;-57
2023/01/02 08:38:29;;;;;;;5.43;3.25;;;9.70;99.90;;;;;;7364455;19;20582;-57
2023/01/02 08:40:58;;;;;;;5.60;3.25;;;9.60;99.90;;;;;;7362751;19;20027;-57
2023/01/02 08:43:25;;;;;;;4.80;2.70;;;9.60;99.90;;;;;;7362668;19;20014;-57
2023/01/02 08:45:54;;;;;;;2.95;1.65;;;9.50;99.90;;;;;;7362247;19;20506;-57
2023/01/02 08:48:21;;;;;;;3.05;1.70;;;9.40;99.90;;;;;;7365110;19;20050;-57
2023/01/02 08:50:48;;;;;;;4.57;1.92;;;9.40;99.90;;;;;;7359524;19;20015;-57
2023/01/02 08:53:14;;;;;;;5.68;2.03;;;9.40;99.90;;;;;;7358256;19;20663;-57
2023/01/02 08:55:41;;;;;;;4.50;2.30;;;9.40;99.90;;;;;;7364300;19;20011;-57
2023/01/02 08:58:07;;;;;;;4.80;2.58;;;9.40;99.90;;;;;;7361399;19;20022;-57
2023/01/02 09:00:33;;;;;;;4.15;2.58;;;9.40;99.90;;;;;;7366345;19;20052;-46
2023/01/02 09:02:59;;;;;;;5.47;2.85;;;9.30;99.90;;;;;;7358814;19;20018;-57
2023/01/02 09:05:29;;;;;;;4.32;2.75;;;9.30;99.90;;;;;;7364490;19;20101;-57
2023/01/02 09:07:57;;;;;;;4.78;2.85;;;9.30;99.90;;;;;;7362640;19;20030;-45
2023/01/02 09:10:23;;;;;;;4.78;2.97;;;9.30;99.90;;;;;;7365276;19;20030;-47
2023/01/02 09:12:50;;;;;;;7.03;4.18;;;9.30;99.90;;;;;;7359020;19;20859;-46
2023/01/02 09:15:16;;;;;;;4.75;3.03;;;9.30;99.90;;;;;;7361329;19;20595;-48
2023/01/02 09:17:42;;;;;;;4.47;3.00;;;9.30;99.90;;;;;;7363161;19;20418;-49
2023/01/02 09:20:09;;;;;;;7.10;3.47;;;9.30;99.90;;;;;;7363084;19;20021;-48
2023/01/02 09:22:36;;;;;;;5.13;2.85;;;9.30;99.90;;;;;;7362710;19;20422;-47
2023/01/02 09:25:03;;;;;;;6.47;3.08;;;9.20;99.90;;;;;;7359812;19;20018;-45
2023/01/02 09:27:29;;;;;;;5.55;3.25;;;9.20;99.90;;;;;;7363116;19;20037;-46
2023/01/02 09:29:55;;;;;;;4.75;2.70;;;9.20;99.90;;;;;;7361942;19;20019;-46
2023/01/02 09:32:21;;;;;;;5.20;3.40;;;9.20;99.90;;;;;;7360248;19;20019;-51
2023/01/02 09:34:49;;;;;;;7.07;3.78;;;9.10;99.90;;;;;;7364877;19;20051;-48
2023/01/02 09:37:16;;;;;;;6.85;3.80;;;9.10;99.90;;;;;;7357917;19;20021;-49
2023/01/02 09:39:43;;;;;;;4.68;3.08;;;9.20;99.90;;;;;;7362925;19;20507;-49
2023/01/02 09:42:14;;;;;;;6.95;3.67;;;9.10;99.90;;;;;;7359892;19;20133;-47
2023/01/02 09:44:52;;;;;;;4.93;3.42;;;9.10;99.90;;;;;;7362154;19;20035;-46
2023/01/02 09:47:25;;;;;;;6.07;3.20;;;9.20;99.90;;;;;;7357663;19;20090;-50
2023/01/02 09:49:55;;;;;;;5.05;3.10;;;9.20;99.90;;;;;;7365367;19;20505;-48
2023/01/02 09:52:29;;;;;;;5.32;2.97;;;9.20;99.90;;;;;;7362364;19;20037;-48
2023/01/02 09:54:56;;;;;;;6.32;3.20;;;9.20;99.90;;;;;;7361092;19;20018;-45
2023/01/02 09:57:25;;;;;;;4.55;2.88;;;9.30;99.90;;;;;;7356645;19;20026;-46
2023/01/02 10:00:10;;;;;;;4.10;2.33;;;9.30;99.90;;;;;;7360605;19;20444;-46
2023/01/02 10:02:44;;;;;;;5.75;2.75;;;9.30;99.90;;;;;;7360387;19;20464;-48
2023/01/02 10:05:29;;;;;;;6.10;2.85;;;9.30;99.90;;;;;;7360196;19;20020;-46
2023/01/02 10:08:11;;;;;;;5.45;2.80;;;9.30;99.90;;;;;;7362698;19;20022;-51
2023/01/02 10:10:45;;;;;;;4.55;2.38;;;9.30;99.90;;;;;;7362821;19;20420;-46
2023/01/02 10:13:42;;;;;;;5.22;2.78;;;9.30;99.90;;;;;;7361443;19;20019;-47
2023/01/02 10:16:17;;;;;;;4.82;3.03;;;9.30;99.90;;;;;;7357106;19;20098;-46
2023/01/02 10:18:48;;;;;;;5.78;3.28;;;9.40;99.90;;;;;;7360829;19;20405;-46
2023/01/02 10:21:20;;;;;;;5.55;2.78;;;9.50;99.90;;;;;;7357916;19;20104;-49
2023/01/02 10:23:49;;;;;;;;;;;9.40;99.90;;;;;;7361617;19;20460;-47
2023/01/02 10:26:17;;;;;;;7.78;2.78;;;9.40;99.90;;;;;;7359109;19;19959;-47
2023/01/02 10:29:06;;;;;;;5.43;2.83;;;9.30;99.90;;;;;;7362767;19;20010;-47
2023/01/02 10:31:57;;;;;;;6.18;3.30;;;9.30;99.90;;;;;;7353834;19;20018;-50
2023/01/02 10:34:23;;;;;;;5.55;3.05;;;9.30;99.90;;;;;;7360157;19;20033;-49
2023/01/02 10:36:50;;;;;;;7.10;3.75;;;9.30;99.90;;;;;;7362225;19;20014;-47
2023/01/02 10:39:23;;;;;;;6.40;3.20;;;9.30;99.90;;;;;;7364767;19;20463;-47
2023/01/02 10:41:57;;;;;;;5.45;3.38;;;9.20;99.90;;;;;;7362173;19;20023;-46
2023/01/02 10:44:32;;;;;;;5.30;3.60;;;9.30;99.90;;;;;;7363446;19;20367;-50
2023/01/02 10:47:09;;;;;;;7.82;3.95;;;9.30;99.90;;;;;;7365842;19;20524;-49
2023/01/02 10:49:37;;;;;;;6.22;3.95;;;9.30;99.90;;;;;;7363829;19;20026;-46
2023/01/02 10:52:06;;;;;;;6.50;3.58;;;9.40;99.90;;;;;;7360311;19;20026;-45
2023/01/02 10:54:54;;;;;;;7.53;4.18;;;9.50;99.90;;;;;;7361989;19;20025;-58
2023/01/02 10:57:35;;;;;;;6.78;3.47;;;9.50;99.90;;;;;;7361447;19;20037;-45
2023/01/02 11:00:04;;;;;;;8.82;4.03;;;9.50;99.90;;;;;;7362954;19;20014;-47
2023/01/02 11:02:40;;;;;;;6.57;3.78;;;9.60;99.90;;;;;;7362803;19;20022;-46
2023/01/02 11:05:19;;;;;;;7.68;4.18;;;9.80;99.90;;;;;;7356952;19;20484;-47
2023/01/02 11:07:48;;;;;;;5.88;3.75;;;9.80;99.90;;;;;;7361424;19;20015;-45
2023/01/02 11:10:31;;;;;;;7.82;3.92;;;9.90;99.90;;;;;;7361861;19;20023;-45
2023/01/02 11:13:23;;;;;;;6.20;3.75;;;9.90;99.90;;;;;;7356835;19;20022;-48
2023/01/02 11:15:57;;;;;;;7.88;4.25;;;9.90;99.90;;;;;;7363509;19;20431;-47
2023/01/02 11:18:33;;;;;;;7.72;4.03;;;9.90;99.90;;;;;;7368243;19;21261;-48
2023/01/02 11:21:07;;;;;;;7.28;3.78;;;9.90;99.90;;;;;;7367877;19;20101;-47
2023/01/02 11:23:36;;;;;;;5.53;3.55;;;9.90;99.90;;;;;;7366254;19;20018;-47
2023/01/02 11:26:09;;;;;;;7.97;3.70;;;9.90;99.90;;;;;;7366889;19;20341;-47
2023/01/02 11:28:39;;;;;;;7.43;3.75;;;10.00;99.90;;;;;;7368858;19;20014;-47
2023/01/02 11:31:13;;;;;;;5.47;3.10;;;10.00;99.90;;;;;;7365948;19;20010;-47
2023/01/02 11:33:42;;;;;;;7.57;2.85;;;10.00;99.90;;;;;;7362883;19;20018;-48
2023/01/02 11:36:12;;;;;;;7.40;3.20;;;10.00;99.90;;;;;;7367170;19;20396;-50
2023/01/02 11:38:50;;;;;;;5.72;2.78;;;9.90;99.90;;;;;;7362622;19;20728;-49
2023/01/02 11:43:47;;;;;;;7.47;2.67;;;9.90;99.90;;;;;;7361706;19;20029;-50
2023/01/02 11:44:21;;;;;;;7.18;2.55;;;9.90;99.90;;;;;;7366602;19;20014;-50
2023/01/02 11:46:49;;;;;;;5.60;3.00;;;9.90;99.90;;;;;;7368482;19;20018;-49
2023/01/02 11:49:22;;;;;;;7.50;2.88;;;9.90;99.90;;;;;;7366263;19;21236;-58
2023/01/02 11:52:00;;;;;;;9.07;2.50;;;9.80;99.90;;;;;;7365785;19;20018;-57
2023/01/02 11:54:38;;;;;;;9.05;2.97;;;9.80;99.90;;;;;;7365604;19;20608;-58
2023/01/02 11:57:13;;;;;;;9.23;3.03;;;9.70;99.90;;;;;;7367493;19;20769;-58
2023/01/02 11:59:45;;;;;;;10.20;3.00;;;9.70;99.90;;;;;;7369454;19;20053;-58
2023/01/02 12:02:45;;;;;;;7.30;2.70;;;9.80;99.90;;;;;;7365269;19;20022;-58
2023/01/02 12:05:14;;;;;;;8.60;2.97;;;9.80;99.90;;;;;;7362512;19;20480;-58
2023/01/02 12:07:46;;;;;;;6.15;2.95;;;9.80;99.90;;;;;;7366200;19;20417;-58
2023/01/02 12:10:15;;;;;;;8.30;3.65;;;9.90;99.90;;;;;;7368830;19;20044;-58
2023/01/02 12:13:00;;;;;;;8.23;3.55;;;10.00;99.90;;;;;;7364981;19;20014;-58
2023/01/02 12:15:50;;;;;;;9.98;3.50;;;10.00;99.90;;;;;;7367883;19;20014;-58
2023/01/02 12:18:31;;;;;;;10.20;4.55;;;10.00;99.90;;;;;;7366397;19;20421;-58
2023/01/02 12:21:06;;;;;;;8.80;3.92;;;9.90;99.90;;;;;;7365881;19;20053;-58
2023/01/02 12:24:16;;;;;;;9.68;4.68;;;9.80;99.90;;;;;;7366731;19;20473;-49
2023/01/02 12:26:51;;;;;;;7.85;3.63;;;9.80;99.90;;;;;;7366046;19;20014;-61
2023/01/02 12:29:42;;;;;;;8.88;3.97;;;9.70;99.90;;;;;;7362687;19;20011;-58
2023/01/02 12:32:40;;;;;;;10.95;3.97;;;9.70;99.90;;;;;;7363264;19;20018;-45
2023/01/02 12:35:20;;;;;;;10.02;3.42;;;9.70;99.90;;;;;;7366230;19;20014;-58
2023/01/02 12:37:57;;;;;;;7.22;4.00;;;9.70;99.90;;;;;;7366385;19;20014;-57
2023/01/02 12:40:42;;;;;;;10.57;3.53;;;9.70;99.90;;;;;;7367770;19;20029;-59
2023/01/02 12:43:38;;;;;;;9.15;3.47;;;9.70;99.90;;;;;;7365194;19;20564;-57
2023/01/02 12:46:30;;;;;;;10.73;3.60;;;9.80;99.90;;;;;;7365485;19;20461;-59
2023/01/02 12:49:12;;;;;;;11.93;3.17;;;9.80;99.90;;;;;;7364048;19;20014;-58
2023/01/02 12:52:04;;;;;;;10.43;3.33;;;9.80;99.90;;;;;;7363349;19;20044;-58
2023/01/02 12:54:55;;;;;;;8.60;2.80;;;9.80;99.90;;;;;;7357613;19;20511;-58
2023/01/02 12:57:32;;;;;;;10.35;2.85;;;9.80;99.90;;;;;;7360734;19;20424;-58
2023/01/02 13:00:23;;;;;;;12.10;3.03;;;9.80;99.90;;;;;;7363590;19;20467;-58
2023/01/02 13:03:32;;;;;;;10.20;3.42;;;9.80;99.90;;;;;;7365214;19;20275;-58
2023/01/02 13:06:23;;;;;;;10.00;2.60;;;9.80;99.90;;;;;;7360817;19;20019;-58